sensor_id;sensor_type;location;lat;lon;timestamp;pressure;altitude;pressure_sealevel;temperature;humidity
49729;BME280;66333;49.798;10.968;2023-12-28T00:00:50;98186.13;;;9.67;62.03
49729;BME280;66333;49.798;10.968;2023-12-28T00:03:21;98188.44;;;9.70;61.88
49729;BME280;66333;49.798;10.968;2023-12-28T00:05:48;98175.88;;;9.73;61.77
49729;BME280;66333;49.798;10.968;2023-12-28T00:08:16;98178.47;;;9.73;61.82
49729;BME280;66333;49.798;10.968;2023-12-28T00:10:46;98175.66;;;9.67;61.89
49729;BME280;66333;49.798;10.968;2023-12-28T00:13:20;98163.25;;;9.69;61.95
49729;BME280;66333;49.798;10.968;2023-12-28T00:15:50;98155.25;;;9.70;61.80
49729;BME280;66333;49.798;10.968;2023-12-28T00:18:19;98147.91;;;9.74;61.73
49729;BME280;66333;49.798;10.968;2023-12-28T00:20:46;98147.78;;;9.75;61.55
49729;BME280;66333;49.798;10.968;2023-12-28T00:23:15;98154.72;;;9.67;61.75
49729;BME280;66333;49.798;10.968;2023-12-28T00:25:42;98160.25;;;9.64;61.74
49729;BME280;66333;49.798;10.968;2023-12-28T00:28:10;98160.84;;;9.57;62.13
49729;BME280;66333;49.798;10.968;2023-12-28T00:30:50;98156.44;;;9.58;62.06
49729;BME280;66333;49.798;10.968;2023-12-28T00:33:21;98147.31;;;9.62;61.92
49729;BME280;66333;49.798;10.968;2023-12-28T00:35:48;98149.19;;;9.70;61.67
49729;BME280;66333;49.798;10.968;2023-12-28T00:38:16;98152.25;;;9.65;61.81
49729;BME280;66333;49.798;10.968;2023-12-28T00:40:46;98155.00;;;9.64;61.86
49729;BME280;66333;49.798;10.968;2023-12-28T00:43:16;98158.59;;;9.63;61.78
49729;BME280;66333;49.798;10.968;2023-12-28T00:45:48;98155.63;;;9.57;61.95
49729;BME280;66333;49.798;10.968;2023-12-28T00:48:15;98153.94;;;9.56;61.93
49729;BME280;66333;49.798;10.968;2023-12-28T00:50:43;98153.94;;;9.56;61.94
49729;BME280;66333;49.798;10.968;2023-12-28T00:53:11;98154.50;;;9.60;62.04
49729;BME280;66333;49.798;10.968;2023-12-28T00:55:39;98159.56;;;9.61;61.78
49729;BME280;66333;49.798;10.968;2023-12-28T00:58:09;98160.56;;;9.60;61.95
49729;BME280;66333;49.798;10.968;2023-12-28T01:00:36;98162.84;;;9.64;61.83
49729;BME280;66333;49.798;10.968;2023-12-28T01:03:05;98159.19;;;9.56;61.96
49729;BME280;66333;49.798;10.968;2023-12-28T01:05:32;98166.38;;;9.54;61.86
49729;BME280;66333;49.798;10.968;2023-12-28T01:07:58;98176.00;;;9.54;61.93
49729;BME280;66333;49.798;10.968;2023-12-28T01:10:25;98177.88;;;9.61;61.81
49729;BME280;66333;49.798;10.968;2023-12-28T01:12:51;98176.69;;;9.74;61.44
49729;BME280;66333;49.798;10.968;2023-12-28T01:15:19;98168.16;;;9.72;61.49
49729;BME280;66333;49.798;10.968;2023-12-28T01:17:45;98170.78;;;9.72;61.37
49729;BME280;66333;49.798;10.968;2023-12-28T01:20:18;98183.63;;;9.65;61.44
49729;BME280;66333;49.798;10.968;2023-12-28T01:22:46;98189.31;;;9.60;61.50
49729;BME280;66333;49.798;10.968;2023-12-28T01:25:16;98197.47;;;9.57;61.60
49729;BME280;66333;49.798;10.968;2023-12-28T01:27:46;98196.34;;;9.60;61.67
49729;BME280;66333;49.798;10.968;2023-12-28T01:30:16;98197.47;;;9.57;61.59
49729;BME280;66333;49.798;10.968;2023-12-28T01:32:46;98203.81;;;9.55;61.68
49729;BME280;66333;49.798;10.968;2023-12-28T01:35:21;98204.03;;;9.61;61.63
49729;BME280;66333;49.798;10.968;2023-12-28T01:37:48;98198.00;;;9.61;61.56
49729;BME280;66333;49.798;10.968;2023-12-28T01:40:16;98210.41;;;9.59;61.49
49729;BME280;66333;49.798;10.968;2023-12-28T01:42:45;98208.22;;;9.54;61.55
49729;BME280;66333;49.798;10.968;2023-12-28T01:45:12;98217.34;;;9.50;61.68
49729;BME280;66333;49.798;10.968;2023-12-28T01:47:39;98217.03;;;9.53;61.70
49729;BME280;66333;49.798;10.968;2023-12-28T01:50:07;98204.72;;;9.64;61.33
49729;BME280;66333;49.798;10.968;2023-12-28T01:52:38;98198.50;;;9.65;61.25
49729;BME280;66333;49.798;10.968;2023-12-28T01:55:07;98205.84;;;9.61;61.42
49729;BME280;66333;49.798;10.968;2023-12-28T01:57:34;98219.06;;;9.59;61.51
49729;BME280;66333;49.798;10.968;2023-12-28T02:00:03;98223.63;;;9.57;61.48
49729;BME280;66333;49.798;10.968;2023-12-28T02:02:32;98226.16;;;9.49;61.63
49729;BME280;66333;49.798;10.968;2023-12-28T02:05:03;98219.66;;;9.53;61.63
49729;BME280;66333;49.798;10.968;2023-12-28T02:07:32;98211.81;;;9.53;61.67
49729;BME280;66333;49.798;10.968;2023-12-28T02:10:02;98207.78;;;9.59;61.48
49729;BME280;66333;49.798;10.968;2023-12-28T02:12:30;98206.56;;;9.53;61.39
49729;BME280;66333;49.798;10.968;2023-12-28T02:14:58;98200.81;;;9.50;61.66
49729;BME280;66333;49.798;10.968;2023-12-28T02:17:30;98208.28;;;9.45;61.79
49729;BME280;66333;49.798;10.968;2023-12-28T02:20:05;98205.50;;;9.46;61.60
49729;BME280;66333;49.798;10.968;2023-12-28T02:22:36;98189.22;;;9.52;61.39
49729;BME280;66333;49.798;10.968;2023-12-28T02:25:08;98175.19;;;9.53;61.40
49729;BME280;66333;49.798;10.968;2023-12-28T02:27:38;98184.00;;;9.52;61.30
49729;BME280;66333;49.798;10.968;2023-12-28T02:30:06;98200.28;;;9.46;61.54
49729;BME280;66333;49.798;10.968;2023-12-28T02:32:47;98203.88;;;9.45;61.64
49729;BME280;66333;49.798;10.968;2023-12-28T02:35:23;98208.44;;;9.43;61.62
49729;BME280;66333;49.798;10.968;2023-12-28T02:37:53;98215.97;;;9.46;61.54
49729;BME280;66333;49.798;10.968;2023-12-28T02:40:24;98213.75;;;9.51;61.33
49729;BME280;66333;49.798;10.968;2023-12-28T02:42:56;98211.81;;;9.53;61.25
49729;BME280;66333;49.798;10.968;2023-12-28T02:45:23;98210.97;;;9.53;61.24
49729;BME280;66333;49.798;10.968;2023-12-28T02:47:52;98209.34;;;9.52;61.24
49729;BME280;66333;49.798;10.968;2023-12-28T02:50:20;98227.41;;;9.45;61.52
49729;BME280;66333;49.798;10.968;2023-12-28T02:52:47;98232.34;;;9.48;61.36
49729;BME280;66333;49.798;10.968;2023-12-28T02:55:14;98230.84;;;9.46;61.36
49729;BME280;66333;49.798;10.968;2023-12-28T02:57:49;98227.69;;;9.42;61.42
49729;BME280;66333;49.798;10.968;2023-12-28T03:00:17;98223.16;;;9.44;61.47
49729;BME280;66333;49.798;10.968;2023-12-28T03:02:44;98214.63;;;9.42;61.36
49729;BME280;66333;49.798;10.968;2023-12-28T03:05:11;98218.50;;;9.38;61.52
49729;BME280;66333;49.798;10.968;2023-12-28T03:07:39;98212.00;;;9.42;61.44
49729;BME280;66333;49.798;10.968;2023-12-28T03:10:08;98214.31;;;9.45;61.33
49729;BME280;66333;49.798;10.968;2023-12-28T03:12:38;98217.75;;;9.46;61.20
49729;BME280;66333;49.798;10.968;2023-12-28T03:15:11;98212.84;;;9.43;61.27
49729;BME280;66333;49.798;10.968;2023-12-28T03:17:39;98203.03;;;9.45;61.22
49729;BME280;66333;49.798;10.968;2023-12-28T03:20:08;98203.63;;;9.39;61.32
49729;BME280;66333;49.798;10.968;2023-12-28T03:22:36;98210.28;;;9.33;61.45
49729;BME280;66333;49.798;10.968;2023-12-28T03:25:05;98194.69;;;9.41;61.29
49729;BME280;66333;49.798;10.968;2023-12-28T03:27:32;98198.28;;;9.40;61.27
49729;BME280;66333;49.798;10.968;2023-12-28T03:29:59;98199.22;;;9.39;61.35
49729;BME280;66333;49.798;10.968;2023-12-28T03:32:29;98200.88;;;9.40;61.14
49729;BME280;66333;49.798;10.968;2023-12-28T03:34:56;98188.22;;;9.36;61.24
49729;BME280;66333;49.798;10.968;2023-12-28T03:37:24;98194.69;;;9.41;61.16
49729;BME280;66333;49.798;10.968;2023-12-28T03:39:51;98194.59;;;9.33;61.19
49729;BME280;66333;49.798;10.968;2023-12-28T03:42:19;98204.22;;;9.32;61.30
49729;BME280;66333;49.798;10.968;2023-12-28T03:44:48;98195.41;;;9.33;61.41
49729;BME280;66333;49.798;10.968;2023-12-28T03:47:15;98196.47;;;9.41;61.07
49729;BME280;66333;49.798;10.968;2023-12-28T03:49:44;98196.03;;;9.45;60.94
49729;BME280;66333;49.798;10.968;2023-12-28T03:52:12;98199.22;;;9.39;61.13
49729;BME280;66333;49.798;10.968;2023-12-28T03:54:40;98213.56;;;9.35;61.21
49729;BME280;66333;49.798;10.968;2023-12-28T03:57:06;98206.53;;;9.36;61.23
49729;BME280;66333;49.798;10.968;2023-12-28T03:59:33;98205.03;;;9.33;61.26
49729;BME280;66333;49.798;10.968;2023-12-28T04:02:02;98204.16;;;9.42;61.03
49729;BME280;66333;49.798;10.968;2023-12-28T04:04:29;98203.19;;;9.43;60.85
49729;BME280;66333;49.798;10.968;2023-12-28T04:06:58;98205.50;;;9.46;60.87
49729;BME280;66333;49.798;10.968;2023-12-28T04:09:26;98204.75;;;9.36;60.98
49729;BME280;66333;49.798;10.968;2023-12-28T04:11:56;98210.28;;;9.33;61.13
49729;BME280;66333;49.798;10.968;2023-12-28T04:14:24;98212.75;;;9.35;61.33
49729;BME280;66333;49.798;10.968;2023-12-28T04:16:54;98207.81;;;9.31;61.27
49729;BME280;66333;49.798;10.968;2023-12-28T04:19:21;98195.69;;;9.30;61.21
49729;BME280;66333;49.798;10.968;2023-12-28T04:21:49;98197.56;;;9.38;61.13
49729;BME280;66333;49.798;10.968;2023-12-28T04:24:24;98199.50;;;9.36;61.10
49729;BME280;66333;49.798;10.968;2023-12-28T04:26:51;98194.59;;;9.33;61.13
49729;BME280;66333;49.798;10.968;2023-12-28T04:29:19;98195.84;;;9.29;61.16
49729;BME280;66333;49.798;10.968;2023-12-28T04:31:49;98194.59;;;9.33;61.01
49729;BME280;66333;49.798;10.968;2023-12-28T04:34:19;98204.34;;;9.31;61.51
49729;BME280;66333;49.798;10.968;2023-12-28T04:36:49;98201.72;;;9.31;61.21
49729;BME280;66333;49.798;10.968;2023-12-28T04:39:24;98194.50;;;9.25;61.38
49729;BME280;66333;49.798;10.968;2023-12-28T04:41:51;98200.97;;;9.21;61.40
49729;BME280;66333;49.798;10.968;2023-12-28T04:44:20;98200.16;;;9.20;61.53
49729;BME280;66333;49.798;10.968;2023-12-28T04:46:50;98201.78;;;9.21;61.55
49729;BME280;66333;49.798;10.968;2023-12-28T04:49:22;98210.84;;;9.27;61.43
49729;BME280;66333;49.798;10.968;2023-12-28T04:51:49;98215.81;;;9.20;61.59
49729;BME280;66333;49.798;10.968;2023-12-28T04:54:17;98214.19;;;9.19;61.54
49729;BME280;66333;49.798;10.968;2023-12-28T04:56:51;98213.38;;;9.19;61.67
49729;BME280;66333;49.798;10.968;2023-12-28T04:59:21;98214.44;;;9.26;61.33
49729;BME280;66333;49.798;10.968;2023-12-28T05:01:51;98217.72;;;9.28;61.31
49729;BME280;66333;49.798;10.968;2023-12-28T05:04:22;98228.19;;;9.28;61.29
49729;BME280;66333;49.798;10.968;2023-12-28T05:06:49;98239.03;;;9.33;61.21
49729;BME280;66333;49.798;10.968;2023-12-28T05:09:17;98234.47;;;9.35;61.16
49729;BME280;66333;49.798;10.968;2023-12-28T05:11:46;98236.63;;;9.40;60.90
49729;BME280;66333;49.798;10.968;2023-12-28T05:14:14;98224.94;;;9.44;60.86
49729;BME280;66333;49.798;10.968;2023-12-28T05:16:42;98222.38;;;9.34;61.19
49729;BME280;66333;49.798;10.968;2023-12-28T05:19:09;98231.19;;;9.33;61.10
49729;BME280;66333;49.798;10.968;2023-12-28T05:21:37;98234.53;;;9.25;61.36
49729;BME280;66333;49.798;10.968;2023-12-28T05:24:07;98231.88;;;9.35;61.27
49729;BME280;66333;49.798;10.968;2023-12-28T05:26:37;98232.25;;;9.40;60.99
49729;BME280;66333;49.798;10.968;2023-12-28T05:29:09;98229.91;;;9.37;60.97
49729;BME280;66333;49.798;10.968;2023-12-28T05:31:36;98236.78;;;9.38;61.01
49729;BME280;66333;49.798;10.968;2023-12-28T05:34:04;98243.00;;;9.37;60.95
49729;BME280;66333;49.798;10.968;2023-12-28T05:36:32;98244.94;;;9.35;61.16
49729;BME280;66333;49.798;10.968;2023-12-28T05:38:59;98255.81;;;9.40;61.04
49729;BME280;66333;49.798;10.968;2023-12-28T05:41:27;98251.28;;;9.32;61.21
49729;BME280;66333;49.798;10.968;2023-12-28T05:43:54;98259.50;;;9.38;61.28
49729;BME280;66333;49.798;10.968;2023-12-28T05:46:24;98259.81;;;9.35;61.18
49729;BME280;66333;49.798;10.968;2023-12-28T05:48:51;98263.91;;;9.37;61.09
49729;BME280;66333;49.798;10.968;2023-12-28T05:51:20;98264.22;;;9.34;61.05
49729;BME280;66333;49.798;10.968;2023-12-28T05:53:47;98258.69;;;9.37;61.01
49729;BME280;66333;49.798;10.968;2023-12-28T05:56:14;98250.16;;;9.35;61.08
49729;BME280;66333;49.798;10.968;2023-12-28T05:58:44;98255.69;;;9.32;61.30
49729;BME280;66333;49.798;10.968;2023-12-28T06:01:11;98266.16;;;9.32;61.26
49729;BME280;66333;49.798;10.968;2023-12-28T06:03:44;98258.59;;;9.29;61.32
49729;BME280;66333;49.798;10.968;2023-12-28T06:06:12;98260.38;;;9.28;61.26
49729;BME280;66333;49.798;10.968;2023-12-28T06:08:39;98251.81;;;9.36;61.08
49729;BME280;66333;49.798;10.968;2023-12-28T06:11:10;98270.41;;;9.33;61.22
49729;BME280;66333;49.798;10.968;2023-12-28T06:13:40;98264.06;;;9.36;61.13
49729;BME280;66333;49.798;10.968;2023-12-28T06:16:10;98276.31;;;9.35;61.13
49729;BME280;66333;49.798;10.968;2023-12-28T06:18:45;98278.25;;;9.33;61.12
49729;BME280;66333;49.798;10.968;2023-12-28T06:21:15;98277.97;;;9.36;61.14
49729;BME280;66333;49.798;10.968;2023-12-28T06:23:45;98275.75;;;9.41;61.02
49729;BME280;66333;49.798;10.968;2023-12-28T06:26:12;98267.50;;;9.36;61.09
49729;BME280;66333;49.798;10.968;2023-12-28T06:28:39;98263.91;;;9.37;61.09
49729;BME280;66333;49.798;10.968;2023-12-28T06:31:07;98282.38;;;9.36;61.14
49729;BME280;66333;49.798;10.968;2023-12-28T06:33:34;98285.13;;;9.34;61.11
49729;BME280;66333;49.798;10.968;2023-12-28T06:36:11;98284.72;;;9.29;61.29
49729;BME280;66333;49.798;10.968;2023-12-28T06:38:38;98277.72;;;9.29;61.30
49729;BME280;66333;49.798;10.968;2023-12-28T06:41:15;98280.78;;;9.25;61.45
49729;BME280;66333;49.798;10.968;2023-12-28T06:43:45;98284.88;;;9.27;61.34
49729;BME280;66333;49.798;10.968;2023-12-28T06:46:12;98288.47;;;9.26;61.42
49729;BME280;66333;49.798;10.968;2023-12-28T06:48:40;98287.34;;;9.29;61.42
49729;BME280;66333;49.798;10.968;2023-12-28T06:51:10;98294.91;;;9.32;61.31
49729;BME280;66333;49.798;10.968;2023-12-28T06:53:48;98292.00;;;9.35;61.08
49729;BME280;66333;49.798;10.968;2023-12-28T06:56:16;98291.19;;;9.35;61.19
49729;BME280;66333;49.798;10.968;2023-12-28T06:58:46;98297.53;;;9.32;61.16
49729;BME280;66333;49.798;10.968;2023-12-28T07:01:17;98297.13;;;9.27;61.38
49729;BME280;66333;49.798;10.968;2023-12-28T07:03:45;98308.13;;;9.30;61.31
49729;BME280;66333;49.798;10.968;2023-12-28T07:06:18;98303.69;;;9.31;61.39
49729;BME280;66333;49.798;10.968;2023-12-28T07:08:47;98306.06;;;9.34;61.26
49729;BME280;66333;49.798;10.968;2023-12-28T07:11:15;98311.56;;;9.31;61.44
49729;BME280;66333;49.798;10.968;2023-12-28T07:13:45;98304.69;;;9.30;61.49
49729;BME280;66333;49.798;10.968;2023-12-28T07:16:13;98310.72;;;9.30;61.40
49729;BME280;66333;49.798;10.968;2023-12-28T07:18:44;98299.03;;;9.35;61.29
49729;BME280;66333;49.798;10.968;2023-12-28T07:21:11;98295.28;;;9.37;61.30
49729;BME280;66333;49.798;10.968;2023-12-28T07:23:41;98300.94;;;9.42;61.13
49729;BME280;66333;49.798;10.968;2023-12-28T07:26:09;98296.22;;;9.46;60.79
49729;BME280;66333;49.798;10.968;2023-12-28T07:28:37;98301.03;;;9.50;60.04
49729;BME280;66333;49.798;10.968;2023-12-28T07:31:09;98289.75;;;9.50;59.07
49729;BME280;66333;49.798;10.968;2023-12-28T07:33:36;98304.31;;;9.52;59.65
49729;BME280;66333;49.798;10.968;2023-12-28T07:36:07;98304.31;;;9.52;60.54
49729;BME280;66333;49.798;10.968;2023-12-28T07:38:35;98311.03;;;9.55;60.24
49729;BME280;66333;49.798;10.968;2023-12-28T07:41:04;98310.53;;;9.51;60.67
49729;BME280;66333;49.798;10.968;2023-12-28T07:43:31;98314.13;;;9.50;60.83
49729;BME280;66333;49.798;10.968;2023-12-28T07:45:59;98316.72;;;9.50;60.82
49729;BME280;66333;49.798;10.968;2023-12-28T07:48:26;98323.88;;;9.48;60.83
49729;BME280;66333;49.798;10.968;2023-12-28T07:50:56;98318.94;;;9.45;61.01
49729;BME280;66333;49.798;10.968;2023-12-28T07:53:26;98318.41;;;9.42;61.20
49729;BME280;66333;49.798;10.968;2023-12-28T07:55:56;98308.94;;;9.41;61.22
49729;BME280;66333;49.798;10.968;2023-12-28T07:58:24;98308.78;;;9.42;61.14
49729;BME280;66333;49.798;10.968;2023-12-28T08:00:52;98321.03;;;9.42;61.26
49729;BME280;66333;49.798;10.968;2023-12-28T08:03:20;98327.19;;;9.50;60.94
49729;BME280;66333;49.798;10.968;2023-12-28T08:05:47;98321.41;;;9.47;61.03
49729;BME280;66333;49.798;10.968;2023-12-28T08:08:15;98322.38;;;9.46;60.97
49729;BME280;66333;49.798;10.968;2023-12-28T08:10:45;98329.41;;;9.45;60.94
49729;BME280;66333;49.798;10.968;2023-12-28T08:13:13;98329.69;;;9.42;61.19
49729;BME280;66333;49.798;10.968;2023-12-28T08:15:43;98339.56;;;9.48;60.98
49729;BME280;66333;49.798;10.968;2023-12-28T08:18:11;98338.63;;;9.49;61.09
49729;BME280;66333;49.798;10.968;2023-12-28T08:20:38;98334.63;;;9.45;61.05
49729;BME280;66333;49.798;10.968;2023-12-28T08:23:06;98339.56;;;9.48;61.15
49729;BME280;66333;49.798;10.968;2023-12-28T08:25:36;98341.25;;;9.49;61.05
49729;BME280;66333;49.798;10.968;2023-12-28T08:28:05;98342.59;;;9.53;61.12
49729;BME280;66333;49.798;10.968;2023-12-28T08:30:32;98342.72;;;9.52;61.01
49729;BME280;66333;49.798;10.968;2023-12-28T08:33:01;98355.25;;;9.48;61.19
49729;BME280;66333;49.798;10.968;2023-12-28T08:35:29;98356.09;;;9.49;61.18
49729;BME280;66333;49.798;10.968;2023-12-28T08:37:57;98362.44;;;9.46;61.36
49729;BME280;66333;49.798;10.968;2023-12-28T08:40:26;98355.56;;;9.45;61.29
49729;BME280;66333;49.798;10.968;2023-12-28T08:42:56;98353.25;;;9.42;61.41
49729;BME280;66333;49.798;10.968;2023-12-28T08:45:26;98346.47;;;9.49;61.42
49729;BME280;66333;49.798;10.968;2023-12-28T08:47:55;98347.16;;;9.51;61.24
49729;BME280;66333;49.798;10.968;2023-12-28T08:50:24;98354.59;;;9.46;61.33
49729;BME280;66333;49.798;10.968;2023-12-28T08:52:52;98353.63;;;9.47;61.42
49729;BME280;66333;49.798;10.968;2023-12-28T08:55:20;98353.63;;;9.47;61.36
49729;BME280;66333;49.798;10.968;2023-12-28T08:57:48;98356.94;;;9.49;61.30
49729;BME280;66333;49.798;10.968;2023-12-28T09:00:15;98353.34;;;9.50;61.24
49729;BME280;66333;49.798;10.968;2023-12-28T09:02:43;98348.13;;;9.50;61.41
49729;BME280;66333;49.798;10.968;2023-12-28T09:05:11;98341.75;;;9.53;61.32
49729;BME280;66333;49.798;10.968;2023-12-28T09:07:41;98353.03;;;9.53;61.26
49729;BME280;66333;49.798;10.968;2023-12-28T09:10:10;98346.16;;;9.52;61.29
49729;BME280;66333;49.798;10.968;2023-12-28T09:12:39;98345.34;;;9.52;61.42
49729;BME280;66333;49.798;10.968;2023-12-28T09:15:08;98343.97;;;9.57;61.22
49729;BME280;66333;49.798;10.968;2023-12-28T09:17:36;98342.84;;;9.60;61.22
49729;BME280;66333;49.798;10.968;2023-12-28T09:20:07;98341.19;;;9.59;61.13
49729;BME280;66333;49.798;10.968;2023-12-28T09:22:35;98351.94;;;9.56;61.30
49729;BME280;66333;49.798;10.968;2023-12-28T09:25:05;98359.94;;;9.54;61.07
49729;BME280;66333;49.798;10.968;2023-12-28T09:27:33;98368.44;;;9.56;61.14
49729;BME280;66333;49.798;10.968;2023-12-28T09:30:00;98371.16;;;9.65;61.08
49729;BME280;66333;49.798;10.968;2023-12-28T09:32:28;98372.84;;;9.66;61.00
49729;BME280;66333;49.798;10.968;2023-12-28T09:34:55;98367.88;;;9.63;61.13
49729;BME280;66333;49.798;10.968;2023-12-28T09:37:24;98377.81;;;9.59;61.25
49729;BME280;66333;49.798;10.968;2023-12-28T09:39:52;98372.44;;;9.60;61.26
49729;BME280;66333;49.798;10.968;2023-12-28T09:42:25;98368.56;;;9.65;61.15
49729;BME280;66333;49.798;10.968;2023-12-28T09:44:54;98365.94;;;9.65;60.96
49729;BME280;66333;49.798;10.968;2023-12-28T09:47:21;98362.91;;;9.69;60.97
49729;BME280;66333;49.798;10.968;2023-12-28T09:49:48;98351.47;;;9.70;60.99
49729;BME280;66333;49.798;10.968;2023-12-28T09:52:15;98360.13;;;9.71;61.01
49729;BME280;66333;49.798;10.968;2023-12-28T09:54:45;98354.59;;;9.74;60.96
49729;BME280;66333;49.798;10.968;2023-12-28T09:57:13;98362.03;;;9.78;60.68
49729;BME280;66333;49.798;10.968;2023-12-28T09:59:43;98363.16;;;9.76;60.94
49729;BME280;66333;49.798;10.968;2023-12-28T10:02:11;98365.22;;;9.72;61.13
49729;BME280;66333;49.798;10.968;2023-12-28T10:04:38;98371.28;;;9.73;60.78
49729;BME280;66333;49.798;10.968;2023-12-28T10:07:07;98351.03;;;9.75;60.89
49729;BME280;66333;49.798;10.968;2023-12-28T10:09:35;98353.06;;;9.81;60.83
49729;BME280;66333;49.798;10.968;2023-12-28T10:12:02;98354.03;;;9.80;60.75
49729;BME280;66333;49.798;10.968;2023-12-28T10:14:30;98353.50;;;9.76;60.79
49729;BME280;66333;49.798;10.968;2023-12-28T10:17:03;98347.47;;;9.76;60.97
49729;BME280;66333;49.798;10.968;2023-12-28T10:19:31;98351.63;;;9.69;61.02
49729;BME280;66333;49.798;10.968;2023-12-28T10:21:59;98350.94;;;9.67;61.25
49729;BME280;66333;49.798;10.968;2023-12-28T10:24:27;98335.63;;;9.72;61.26
49729;BME280;66333;49.798;10.968;2023-12-28T10:26:55;98338.13;;;9.64;61.37
49729;BME280;66333;49.798;10.968;2023-12-28T10:29:25;98344.44;;;9.71;61.25
49729;BME280;66333;49.798;10.968;2023-12-28T10:31:55;98342.06;;;9.77;61.08
49729;BME280;66333;49.798;10.968;2023-12-28T10:34:25;98333.97;;;9.71;61.25
49729;BME280;66333;49.798;10.968;2023-12-28T10:36:53;98340.03;;;9.71;61.22
49729;BME280;66333;49.798;10.968;2023-12-28T10:39:23;98337.00;;;9.76;61.15
49729;BME280;66333;49.798;10.968;2023-12-28T10:41:55;98330.06;;;9.84;60.96
49729;BME280;66333;49.798;10.968;2023-12-28T10:44:24;98334.16;;;9.87;60.81
49729;BME280;66333;49.798;10.968;2023-12-28T10:46:57;98321.81;;;9.79;61.04
49729;BME280;66333;49.798;10.968;2023-12-28T10:49:34;98327.88;;;9.80;60.95
49729;BME280;66333;49.798;10.968;2023-12-28T10:52:05;98329.97;;;9.76;61.14
49729;BME280;66333;49.798;10.968;2023-12-28T10:54:44;98319.34;;;9.78;61.18
49729;BME280;66333;49.798;10.968;2023-12-28T10:57:22;98322.94;;;9.77;61.23
49729;BME280;66333;49.798;10.968;2023-12-28T11:00:02;98322.13;;;9.76;61.26
49729;BME280;66333;49.798;10.968;2023-12-28T11:02:38;98324.56;;;9.78;61.13
49729;BME280;66333;49.798;10.968;2023-12-28T11:05:15;98320.69;;;9.82;61.16
49729;BME280;66333;49.798;10.968;2023-12-28T11:07:43;98322.94;;;9.77;61.26
49729;BME280;66333;49.798;10.968;2023-12-28T11:10:13;98317.69;;;9.77;61.21
49729;BME280;66333;49.798;10.968;2023-12-28T11:12:43;98320.16;;;9.78;61.13
49729;BME280;66333;49.798;10.968;2023-12-28T11:15:14;98314.41;;;9.75;61.41
49729;BME280;66333;49.798;10.968;2023-12-28T11:17:43;98316.34;;;9.73;61.45
49729;BME280;66333;49.798;10.968;2023-12-28T11:20:15;98313.00;;;9.80;61.26
49729;BME280;66333;49.798;10.968;2023-12-28T11:22:45;98307.22;;;9.77;61.40
49729;BME280;66333;49.798;10.968;2023-12-28T11:25:17;98311.50;;;9.78;61.44
49729;BME280;66333;49.798;10.968;2023-12-28T11:27:45;98314.13;;;9.78;61.52
49729;BME280;66333;49.798;10.968;2023-12-28T11:30:13;98304.97;;;9.82;61.29
49729;BME280;66333;49.798;10.968;2023-12-28T11:32:44;98315.75;;;9.79;61.30
49729;BME280;66333;49.798;10.968;2023-12-28T11:35:18;98307.47;;;9.83;61.40
49729;BME280;66333;49.798;10.968;2023-12-28T11:37:50;98303.34;;;9.81;61.30
49729;BME280;66333;49.798;10.968;2023-12-28T11:40:18;98297.28;;;9.80;61.51
49729;BME280;66333;49.798;10.968;2023-12-28T11:42:50;98299.75;;;9.82;61.34
49729;BME280;66333;49.798;10.968;2023-12-28T11:45:21;98297.03;;;9.74;61.52
49729;BME280;66333;49.798;10.968;2023-12-28T11:47:58;98296.78;;;9.77;61.52
49729;BME280;66333;49.798;10.968;2023-12-28T11:50:28;98302.53;;;9.80;61.24
49729;BME280;66333;49.798;10.968;2023-12-28T11:52:55;98302.00;;;9.77;61.48
49729;BME280;66333;49.798;10.968;2023-12-28T11:55:23;98298.72;;;9.75;61.50
49729;BME280;66333;49.798;10.968;2023-12-28T11:57:51;98298.72;;;9.75;61.45
49729;BME280;66333;49.798;10.968;2023-12-28T12:00:18;98297.03;;;9.74;61.63
49729;BME280;66333;49.798;10.968;2023-12-28T12:02:46;98302.00;;;9.77;61.63
49729;BME280;66333;49.798;10.968;2023-12-28T12:05:17;98294.41;;;9.74;61.73
49729;BME280;66333;49.798;10.968;2023-12-28T12:07:48;98288.25;;;9.75;61.64
49729;BME280;66333;49.798;10.968;2023-12-28T12:10:16;98286.56;;;9.74;61.61
49729;BME280;66333;49.798;10.968;2023-12-28T12:12:44;98287.44;;;9.74;61.79
49729;BME280;66333;49.798;10.968;2023-12-28T12:15:11;98286.56;;;9.74;61.73
49729;BME280;66333;49.798;10.968;2023-12-28T12:17:39;98286.31;;;9.77;61.30
49729;BME280;66333;49.798;10.968;2023-12-28T12:20:08;98286.88;;;9.71;61.82
49729;BME280;66333;49.798;10.968;2023-12-28T12:22:35;98286.88;;;9.71;61.84
49729;BME280;66333;49.798;10.968;2023-12-28T12:25:09;98284.25;;;9.71;61.82
49729;BME280;66333;49.798;10.968;2023-12-28T12:27:37;98278.38;;;9.69;61.79
49729;BME280;66333;49.798;10.968;2023-12-28T12:30:06;98290.47;;;9.70;61.91
49729;BME280;66333;49.798;10.968;2023-12-28T12:32:34;98283.28;;;9.72;61.86
49729;BME280;66333;49.798;10.968;2023-12-28T12:35:06;98279.03;;;9.71;61.93
49729;BME280;66333;49.798;10.968;2023-12-28T12:37:38;98275.59;;;9.70;61.87
49729;BME280;66333;49.798;10.968;2023-12-28T12:40:08;98276.25;;;9.72;61.94
49729;BME280;66333;49.798;10.968;2023-12-28T12:42:36;98275.84;;;9.77;61.69
49729;BME280;66333;49.798;10.968;2023-12-28T12:45:05;98282.41;;;9.81;61.61
49729;BME280;66333;49.798;10.968;2023-12-28T12:47:33;98272.25;;;9.78;61.72
49729;BME280;66333;49.798;10.968;2023-12-28T12:50:01;98275.84;;;9.77;61.79
49729;BME280;66333;49.798;10.968;2023-12-28T12:52:28;98270.88;;;9.74;61.69
49729;BME280;66333;49.798;10.968;2023-12-28T12:54:56;98271.84;;;9.73;61.98
49729;BME280;66333;49.798;10.968;2023-12-28T12:57:25;98271.41;;;9.77;61.72
49729;BME280;66333;49.798;10.968;2023-12-28T12:59:54;98257.44;;;9.69;61.98
49729;BME280;66333;49.798;10.968;2023-12-28T13:02:22;98258.19;;;9.79;61.72
49729;BME280;66333;49.798;10.968;2023-12-28T13:04:51;98249.09;;;9.83;61.61
49729;BME280;66333;49.798;10.968;2023-12-28T13:07:20;98244.13;;;9.80;61.70
49729;BME280;66333;49.798;10.968;2023-12-28T13:09:50;98247.72;;;9.79;61.67